Broadwater, Nebraska
Current Conditions -  °F | °C
As of 8:53 PM on Monday 22 Dec 2014 (Local Time) from KAIA Reporting Station
Light Snow Light Snow  
Wind Chill: 17°   Ceiling: 2800
Heat Index: 31°   Visibility: 3mi
Dew Point: 27°   Wind: 26mph
Humidity: 85%   Direction: 320°NW
Pressure: 29.66"   Gusts: 38mph
Location:  41.6°N, 102.85°W
Report Text: KAIA 230353Z AUTO 32023G33KT 3SM -SN BR FEW023 OVC028 M01/M03 A2966 RMK AO2 PK WND 31043/0308 SNB00 SLP065 P0000 T10061028
Loading
Personal Weather Stations






























Interactive Weather Map New forecast layout! Learn more

10-Day Weather Forecast

Advertisements
Track Severe Weather on mobile